sensor_id;sensor_type;location;lat;lon;timestamp;P1;durP1;ratioP1;P2;durP2;ratioP2
10303;SDS011;5197;48.152;8.590;2022-11-20T00:01:09;5.80;;;4.00;;
10303;SDS011;5197;48.152;8.590;2022-11-20T00:03:38;3.33;;;3.03;;
10303;SDS011;5197;48.152;8.590;2022-11-20T00:06:07;3.70;;;3.40;;
10303;SDS011;5197;48.152;8.590;2022-11-20T00:08:37;4.50;;;3.63;;
10303;SDS011;5197;48.152;8.590;2022-11-20T00:11:07;4.10;;;3.57;;
10303;SDS011;5197;48.152;8.590;2022-11-20T00:13:41;3.57;;;3.27;;
10303;SDS011;5197;48.152;8.590;2022-11-20T00:16:13;3.43;;;3.13;;
10303;SDS011;5197;48.152;8.590;2022-11-20T00:18:41;3.30;;;3.10;;
10303;SDS011;5197;48.152;8.590;2022-11-20T00:21:11;3.30;;;3.10;;
10303;SDS011;5197;48.152;8.590;2022-11-20T00:23:39;3.70;;;3.07;;
10303;SDS011;5197;48.152;8.590;2022-11-20T00:26:08;2.90;;;2.70;;
10303;SDS011;5197;48.152;8.590;2022-11-20T00:28:37;3.67;;;3.07;;
10303;SDS011;5197;48.152;8.590;2022-11-20T00:31:08;3.47;;;3.17;;
10303;SDS011;5197;48.152;8.590;2022-11-20T00:33:36;2.90;;;2.70;;
10303;SDS011;5197;48.152;8.590;2022-11-20T00:36:04;3.83;;;3.10;;
10303;SDS011;5197;48.152;8.590;2022-11-20T00:38:33;3.00;;;2.80;;
10303;SDS011;5197;48.152;8.590;2022-11-20T00:41:01;4.00;;;2.97;;
10303;SDS011;5197;48.152;8.590;2022-11-20T00:43:30;4.30;;;3.20;;
10303;SDS011;5197;48.152;8.590;2022-11-20T00:45:58;3.27;;;3.07;;
10303;SDS011;5197;48.152;8.590;2022-11-20T00:48:25;3.27;;;2.97;;
10303;SDS011;5197;48.152;8.590;2022-11-20T00:50:53;3.83;;;3.00;;
10303;SDS011;5197;48.152;8.590;2022-11-20T00:53:20;2.63;;;2.53;;
10303;SDS011;5197;48.152;8.590;2022-11-20T00:55:57;3.20;;;2.90;;
10303;SDS011;5197;48.152;8.590;2022-11-20T00:58:29;2.97;;;2.67;;
10303;SDS011;5197;48.152;8.590;2022-11-20T01:01:07;3.37;;;3.07;;
10303;SDS011;5197;48.152;8.590;2022-11-20T01:03:37;4.03;;;2.93;;
10303;SDS011;5197;48.152;8.590;2022-11-20T01:06:07;4.07;;;3.00;;
10303;SDS011;5197;48.152;8.590;2022-11-20T01:08:37;3.20;;;2.90;;
10303;SDS011;5197;48.152;8.590;2022-11-20T01:11:09;3.50;;;3.20;;
10303;SDS011;5197;48.152;8.590;2022-11-20T01:13:37;3.40;;;2.90;;
10303;SDS011;5197;48.152;8.590;2022-11-20T01:16:09;3.40;;;2.90;;
10303;SDS011;5197;48.152;8.590;2022-11-20T01:18:41;2.80;;;2.63;;
10303;SDS011;5197;48.152;8.590;2022-11-20T01:21:20;3.67;;;2.90;;
10303;SDS011;5197;48.152;8.590;2022-11-20T01:23:49;4.40;;;3.13;;
10303;SDS011;5197;48.152;8.590;2022-11-20T01:26:18;3.50;;;3.20;;
10303;SDS011;5197;48.152;8.590;2022-11-20T01:28:51;3.20;;;3.00;;
10303;SDS011;5197;48.152;8.590;2022-11-20T01:31:19;3.60;;;2.70;;
10303;SDS011;5197;48.152;8.590;2022-11-20T01:33:52;3.10;;;2.80;;
10303;SDS011;5197;48.152;8.590;2022-11-20T01:36:20;4.17;;;2.80;;
10303;SDS011;5197;48.152;8.590;2022-11-20T01:38:53;3.20;;;2.90;;
10303;SDS011;5197;48.152;8.590;2022-11-20T01:41:25;3.30;;;3.10;;
10303;SDS011;5197;48.152;8.590;2022-11-20T01:44:13;3.17;;;2.90;;
10303;SDS011;5197;48.152;8.590;2022-11-20T01:49:25;3.07;;;2.37;;
10303;SDS011;5197;48.152;8.590;2022-11-20T01:51:58;2.97;;;2.77;;
10303;SDS011;5197;48.152;8.590;2022-11-20T01:54:36;2.63;;;2.40;;
10303;SDS011;5197;48.152;8.590;2022-11-20T01:57:10;3.03;;;2.70;;
10303;SDS011;5197;48.152;8.590;2022-11-20T01:59:40;2.50;;;2.30;;
10303;SDS011;5197;48.152;8.590;2022-11-20T02:02:14;2.30;;;2.20;;
10303;SDS011;5197;48.152;8.590;2022-11-20T02:04:41;2.67;;;2.47;;
10303;SDS011;5197;48.152;8.590;2022-11-20T02:07:08;3.00;;;2.70;;
10303;SDS011;5197;48.152;8.590;2022-11-20T02:09:35;3.37;;;2.67;;
10303;SDS011;5197;48.152;8.590;2022-11-20T02:12:02;3.13;;;2.63;;
10303;SDS011;5197;48.152;8.590;2022-11-20T02:14:30;3.43;;;2.63;;
10303;SDS011;5197;48.152;8.590;2022-11-20T02:16:57;3.17;;;2.60;;
10303;SDS011;5197;48.152;8.590;2022-11-20T02:19:28;2.80;;;2.60;;
10303;SDS011;5197;48.152;8.590;2022-11-20T02:22:11;2.60;;;2.40;;
10303;SDS011;5197;48.152;8.590;2022-11-20T02:24:44;2.60;;;2.40;;
10303;SDS011;5197;48.152;8.590;2022-11-20T02:27:13;2.37;;;2.27;;
10303;SDS011;5197;48.152;8.590;2022-11-20T02:29:47;3.37;;;2.30;;
10303;SDS011;5197;48.152;8.590;2022-11-20T02:32:37;2.60;;;2.50;;
10303;SDS011;5197;48.152;8.590;2022-11-20T02:35:08;2.33;;;2.23;;
10303;SDS011;5197;48.152;8.590;2022-11-20T02:37:37;2.53;;;2.33;;
10303;SDS011;5197;48.152;8.590;2022-11-20T02:40:06;2.23;;;2.10;;
10303;SDS011;5197;48.152;8.590;2022-11-20T02:42:34;2.50;;;2.40;;
10303;SDS011;5197;48.152;8.590;2022-11-20T02:45:02;3.63;;;2.60;;
10303;SDS011;5197;48.152;8.590;2022-11-20T02:47:30;2.90;;;2.47;;
10303;SDS011;5197;48.152;8.590;2022-11-20T02:49:58;3.30;;;2.70;;
10303;SDS011;5197;48.152;8.590;2022-11-20T02:52:25;2.73;;;2.40;;
10303;SDS011;5197;48.152;8.590;2022-11-20T02:54:52;2.80;;;2.40;;
10303;SDS011;5197;48.152;8.590;2022-11-20T02:57:19;2.13;;;2.03;;
10303;SDS011;5197;48.152;8.590;2022-11-20T02:59:47;2.77;;;2.30;;
10303;SDS011;5197;48.152;8.590;2022-11-20T03:02:14;2.30;;;2.20;;
10303;SDS011;5197;48.152;8.590;2022-11-20T03:04:41;2.53;;;2.27;;
10303;SDS011;5197;48.152;8.590;2022-11-20T03:07:08;2.40;;;2.20;;
10303;SDS011;5197;48.152;8.590;2022-11-20T03:09:36;2.47;;;2.30;;
10303;SDS011;5197;48.152;8.590;2022-11-20T03:12:03;4.40;;;2.37;;
10303;SDS011;5197;48.152;8.590;2022-11-20T03:14:30;3.63;;;2.80;;
10303;SDS011;5197;48.152;8.590;2022-11-20T03:16:57;2.63;;;2.43;;
10303;SDS011;5197;48.152;8.590;2022-11-20T03:19:24;3.20;;;2.33;;
10303;SDS011;5197;48.152;8.590;2022-11-20T03:21:51;2.50;;;2.30;;
10303;SDS011;5197;48.152;8.590;2022-11-20T03:24:18;2.73;;;2.53;;
10303;SDS011;5197;48.152;8.590;2022-11-20T03:26:45;2.80;;;2.60;;
10303;SDS011;5197;48.152;8.590;2022-11-20T03:29:12;2.90;;;2.70;;
10303;SDS011;5197;48.152;8.590;2022-11-20T03:31:39;3.10;;;2.57;;
10303;SDS011;5197;48.152;8.590;2022-11-20T03:34:08;2.93;;;2.50;;
10303;SDS011;5197;48.152;8.590;2022-11-20T03:36:40;2.67;;;2.47;;
10303;SDS011;5197;48.152;8.590;2022-11-20T03:39:08;2.87;;;2.60;;
10303;SDS011;5197;48.152;8.590;2022-11-20T03:41:36;2.83;;;2.63;;
10303;SDS011;5197;48.152;8.590;2022-11-20T03:44:05;2.60;;;2.40;;
10303;SDS011;5197;48.152;8.590;2022-11-20T03:46:34;2.80;;;2.60;;
10303;SDS011;5197;48.152;8.590;2022-11-20T03:49:01;3.93;;;2.53;;
10303;SDS011;5197;48.152;8.590;2022-11-20T03:51:30;3.20;;;2.57;;
10303;SDS011;5197;48.152;8.590;2022-11-20T03:54:02;3.03;;;2.60;;
10303;SDS011;5197;48.152;8.590;2022-11-20T03:56:32;2.77;;;2.57;;
10303;SDS011;5197;48.152;8.590;2022-11-20T03:59:04;2.97;;;2.67;;
10303;SDS011;5197;48.152;8.590;2022-11-20T04:01:35;2.97;;;2.77;;
10303;SDS011;5197;48.152;8.590;2022-11-20T04:04:12;3.80;;;3.13;;
10303;SDS011;5197;48.152;8.590;2022-11-20T04:06:39;4.77;;;3.83;;
10303;SDS011;5197;48.152;8.590;2022-11-20T04:09:06;6.17;;;4.13;;
10303;SDS011;5197;48.152;8.590;2022-11-20T04:11:33;5.53;;;3.53;;
10303;SDS011;5197;48.152;8.590;2022-11-20T04:14:05;8.03;;;4.10;;
10303;SDS011;5197;48.152;8.590;2022-11-20T04:16:38;6.97;;;3.30;;
10303;SDS011;5197;48.152;8.590;2022-11-20T04:19:06;4.73;;;3.60;;
10303;SDS011;5197;48.152;8.590;2022-11-20T04:21:37;6.23;;;4.20;;
10303;SDS011;5197;48.152;8.590;2022-11-20T04:24:04;11.33;;;5.57;;
10303;SDS011;5197;48.152;8.590;2022-11-20T04:26:31;4.73;;;3.83;;
10303;SDS011;5197;48.152;8.590;2022-11-20T04:28:58;5.87;;;4.17;;
10303;SDS011;5197;48.152;8.590;2022-11-20T04:31:31;7.47;;;4.97;;
10303;SDS011;5197;48.152;8.590;2022-11-20T04:34:04;10.00;;;5.03;;
10303;SDS011;5197;48.152;8.590;2022-11-20T04:36:32;7.97;;;4.77;;
10303;SDS011;5197;48.152;8.590;2022-11-20T04:39:00;5.17;;;4.03;;
10303;SDS011;5197;48.152;8.590;2022-11-20T04:41:30;4.27;;;3.60;;
10303;SDS011;5197;48.152;8.590;2022-11-20T04:44:02;4.87;;;3.43;;
10303;SDS011;5197;48.152;8.590;2022-11-20T04:46:32;6.37;;;4.20;;
10303;SDS011;5197;48.152;8.590;2022-11-20T04:49:00;7.47;;;4.47;;
10303;SDS011;5197;48.152;8.590;2022-11-20T04:51:28;8.23;;;5.03;;
10303;SDS011;5197;48.152;8.590;2022-11-20T04:53:55;6.33;;;5.13;;
10303;SDS011;5197;48.152;8.590;2022-11-20T04:56:22;5.83;;;5.17;;
10303;SDS011;5197;48.152;8.590;2022-11-20T04:58:49;5.00;;;3.87;;
10303;SDS011;5197;48.152;8.590;2022-11-20T05:01:17;5.67;;;3.93;;
10303;SDS011;5197;48.152;8.590;2022-11-20T05:03:46;4.67;;;4.17;;
10303;SDS011;5197;48.152;8.590;2022-11-20T05:06:16;4.97;;;4.07;;
10303;SDS011;5197;48.152;8.590;2022-11-20T05:08:44;4.00;;;3.60;;
10303;SDS011;5197;48.152;8.590;2022-11-20T05:11:12;3.60;;;3.30;;
10303;SDS011;5197;48.152;8.590;2022-11-20T05:13:41;5.13;;;3.60;;
10303;SDS011;5197;48.152;8.590;2022-11-20T05:16:18;3.87;;;2.70;;
10303;SDS011;5197;48.152;8.590;2022-11-20T05:18:46;3.10;;;2.90;;
10303;SDS011;5197;48.152;8.590;2022-11-20T05:21:15;4.83;;;3.67;;
10303;SDS011;5197;48.152;8.590;2022-11-20T05:23:42;3.30;;;3.10;;
10303;SDS011;5197;48.152;8.590;2022-11-20T05:26:14;3.90;;;3.60;;
10303;SDS011;5197;48.152;8.590;2022-11-20T05:28:45;3.40;;;2.90;;
10303;SDS011;5197;48.152;8.590;2022-11-20T05:31:14;3.63;;;3.00;;
10303;SDS011;5197;48.152;8.590;2022-11-20T05:33:48;3.40;;;3.10;;
10303;SDS011;5197;48.152;8.590;2022-11-20T05:36:16;4.53;;;3.00;;
10303;SDS011;5197;48.152;8.590;2022-11-20T05:38:43;2.90;;;2.70;;
10303;SDS011;5197;48.152;8.590;2022-11-20T05:41:16;3.27;;;2.80;;
10303;SDS011;5197;48.152;8.590;2022-11-20T05:43:45;3.10;;;2.80;;
10303;SDS011;5197;48.152;8.590;2022-11-20T05:46:13;2.90;;;2.70;;
10303;SDS011;5197;48.152;8.590;2022-11-20T05:48:42;3.00;;;2.40;;
10303;SDS011;5197;48.152;8.590;2022-11-20T05:51:11;3.97;;;2.77;;
10303;SDS011;5197;48.152;8.590;2022-11-20T05:53:40;2.83;;;2.63;;
10303;SDS011;5197;48.152;8.590;2022-11-20T05:56:17;2.90;;;2.53;;
10303;SDS011;5197;48.152;8.590;2022-11-20T05:58:46;2.80;;;2.60;;
10303;SDS011;5197;48.152;8.590;2022-11-20T06:01:17;3.90;;;2.80;;
10303;SDS011;5197;48.152;8.590;2022-11-20T06:03:49;2.80;;;2.60;;
10303;SDS011;5197;48.152;8.590;2022-11-20T06:06:17;3.90;;;2.50;;
10303;SDS011;5197;48.152;8.590;2022-11-20T06:08:44;6.30;;;2.40;;
10303;SDS011;5197;48.152;8.590;2022-11-20T06:11:12;2.97;;;2.53;;
10303;SDS011;5197;48.152;8.590;2022-11-20T06:13:40;2.90;;;2.70;;
10303;SDS011;5197;48.152;8.590;2022-11-20T06:16:08;2.80;;;2.60;;
10303;SDS011;5197;48.152;8.590;2022-11-20T06:18:36;3.03;;;2.83;;
10303;SDS011;5197;48.152;8.590;2022-11-20T06:21:11;2.93;;;2.63;;
10303;SDS011;5197;48.152;8.590;2022-11-20T06:23:40;3.10;;;2.80;;
10303;SDS011;5197;48.152;8.590;2022-11-20T06:26:14;3.20;;;3.00;;
10303;SDS011;5197;48.152;8.590;2022-11-20T06:28:43;2.80;;;2.60;;
10303;SDS011;5197;48.152;8.590;2022-11-20T06:31:10;3.00;;;2.80;;
10303;SDS011;5197;48.152;8.590;2022-11-20T06:33:41;2.63;;;2.40;;
10303;SDS011;5197;48.152;8.590;2022-11-20T06:36:09;2.77;;;2.37;;
10303;SDS011;5197;48.152;8.590;2022-11-20T06:38:38;2.50;;;2.40;;
10303;SDS011;5197;48.152;8.590;2022-11-20T06:41:06;2.90;;;2.70;;
10303;SDS011;5197;48.152;8.590;2022-11-20T06:43:36;2.77;;;2.57;;
10303;SDS011;5197;48.152;8.590;2022-11-20T06:46:03;3.53;;;2.40;;
10303;SDS011;5197;48.152;8.590;2022-11-20T06:48:30;2.83;;;2.63;;
10303;SDS011;5197;48.152;8.590;2022-11-20T06:50:57;3.07;;;2.50;;
10303;SDS011;5197;48.152;8.590;2022-11-20T06:53:24;2.90;;;2.47;;
10303;SDS011;5197;48.152;8.590;2022-11-20T06:55:51;2.97;;;2.40;;
10303;SDS011;5197;48.152;8.590;2022-11-20T06:58:21;2.47;;;2.27;;
10303;SDS011;5197;48.152;8.590;2022-11-20T07:00:48;3.80;;;2.30;;
10303;SDS011;5197;48.152;8.590;2022-11-20T07:03:15;2.83;;;2.60;;
10303;SDS011;5197;48.152;8.590;2022-11-20T07:05:42;4.50;;;3.90;;
10303;SDS011;5197;48.152;8.590;2022-11-20T07:08:10;4.23;;;3.93;;
10303;SDS011;5197;48.152;8.590;2022-11-20T07:10:37;3.03;;;2.80;;
10303;SDS011;5197;48.152;8.590;2022-11-20T07:13:04;3.30;;;3.00;;
10303;SDS011;5197;48.152;8.590;2022-11-20T07:15:31;2.97;;;2.77;;
10303;SDS011;5197;48.152;8.590;2022-11-20T07:17:58;2.93;;;2.63;;
10303;SDS011;5197;48.152;8.590;2022-11-20T07:20:26;3.40;;;2.97;;
10303;SDS011;5197;48.152;8.590;2022-11-20T07:22:56;3.27;;;3.07;;
10303;SDS011;5197;48.152;8.590;2022-11-20T07:25:24;3.40;;;3.10;;
10303;SDS011;5197;48.152;8.590;2022-11-20T07:27:53;3.50;;;3.13;;
10303;SDS011;5197;48.152;8.590;2022-11-20T07:30:26;4.40;;;3.73;;
10303;SDS011;5197;48.152;8.590;2022-11-20T07:32:54;5.93;;;4.70;;
10303;SDS011;5197;48.152;8.590;2022-11-20T07:35:23;5.60;;;4.20;;
10303;SDS011;5197;48.152;8.590;2022-11-20T07:37:51;4.70;;;4.23;;
10303;SDS011;5197;48.152;8.590;2022-11-20T07:40:18;6.10;;;4.57;;
10303;SDS011;5197;48.152;8.590;2022-11-20T07:42:47;8.07;;;5.20;;
10303;SDS011;5197;48.152;8.590;2022-11-20T07:45:15;5.93;;;4.57;;
10303;SDS011;5197;48.152;8.590;2022-11-20T07:47:43;6.20;;;3.90;;
10303;SDS011;5197;48.152;8.590;2022-11-20T07:50:10;5.90;;;3.97;;
10303;SDS011;5197;48.152;8.590;2022-11-20T07:52:38;3.60;;;3.10;;
10303;SDS011;5197;48.152;8.590;2022-11-20T07:55:06;3.07;;;2.80;;
10303;SDS011;5197;48.152;8.590;2022-11-20T07:57:34;3.30;;;2.93;;
10303;SDS011;5197;48.152;8.590;2022-11-20T08:00:01;3.73;;;3.20;;
10303;SDS011;5197;48.152;8.590;2022-11-20T08:02:29;3.20;;;2.90;;
10303;SDS011;5197;48.152;8.590;2022-11-20T08:04:56;3.67;;;2.47;;
10303;SDS011;5197;48.152;8.590;2022-11-20T08:07:23;4.13;;;2.50;;
10303;SDS011;5197;48.152;8.590;2022-11-20T08:09:50;4.23;;;2.70;;
10303;SDS011;5197;48.152;8.590;2022-11-20T08:12:18;3.00;;;2.80;;
10303;SDS011;5197;48.152;8.590;2022-11-20T08:15:05;3.13;;;2.83;;
10303;SDS011;5197;48.152;8.590;2022-11-20T08:17:38;3.47;;;2.77;;
10303;SDS011;5197;48.152;8.590;2022-11-20T08:20:05;2.83;;;2.63;;
10303;SDS011;5197;48.152;8.590;2022-11-20T08:22:33;3.97;;;3.10;;
10303;SDS011;5197;48.152;8.590;2022-11-20T08:24:59;2.83;;;2.63;;
10303;SDS011;5197;48.152;8.590;2022-11-20T08:27:27;4.10;;;3.80;;
10303;SDS011;5197;48.152;8.590;2022-11-20T08:29:54;5.37;;;3.60;;
10303;SDS011;5197;48.152;8.590;2022-11-20T08:32:21;4.30;;;3.83;;
10303;SDS011;5197;48.152;8.590;2022-11-20T08:34:48;4.23;;;3.33;;
10303;SDS011;5197;48.152;8.590;2022-11-20T08:37:15;4.57;;;4.13;;
10303;SDS011;5197;48.152;8.590;2022-11-20T08:39:42;5.13;;;4.67;;
10303;SDS011;5197;48.152;8.590;2022-11-20T08:42:09;4.53;;;4.10;;
10303;SDS011;5197;48.152;8.590;2022-11-20T08:44:36;3.30;;;3.00;;
10303;SDS011;5197;48.152;8.590;2022-11-20T08:47:03;3.10;;;2.90;;
10303;SDS011;5197;48.152;8.590;2022-11-20T08:49:30;3.50;;;2.90;;
10303;SDS011;5197;48.152;8.590;2022-11-20T08:51:57;3.30;;;3.07;;
10303;SDS011;5197;48.152;8.590;2022-11-20T08:54:24;4.20;;;3.33;;
10303;SDS011;5197;48.152;8.590;2022-11-20T08:56:51;5.10;;;3.30;;
10303;SDS011;5197;48.152;8.590;2022-11-20T08:59:18;3.23;;;2.30;;
10303;SDS011;5197;48.152;8.590;2022-11-20T09:02:05;1.20;;;1.20;;
10303;SDS011;5197;48.152;8.590;2022-11-20T09:04:32;1.17;;;1.10;;
10303;SDS011;5197;48.152;8.590;2022-11-20T09:06:59;1.57;;;1.10;;
10303;SDS011;5197;48.152;8.590;2022-11-20T09:09:26;0.90;;;0.90;;
10303;SDS011;5197;48.152;8.590;2022-11-20T09:11:54;0.97;;;0.97;;
10303;SDS011;5197;48.152;8.590;2022-11-20T09:14:20;1.20;;;1.10;;
10303;SDS011;5197;48.152;8.590;2022-11-20T09:16:47;1.07;;;1.07;;
10303;SDS011;5197;48.152;8.590;2022-11-20T09:19:14;0.80;;;0.80;;
10303;SDS011;5197;48.152;8.590;2022-11-20T09:22:01;1.13;;;1.13;;
10303;SDS011;5197;48.152;8.590;2022-11-20T09:24:28;1.37;;;1.27;;
10303;SDS011;5197;48.152;8.590;2022-11-20T09:26:56;1.60;;;1.50;;
10303;SDS011;5197;48.152;8.590;2022-11-20T09:29:23;1.40;;;1.40;;
10303;SDS011;5197;48.152;8.590;2022-11-20T09:31:50;1.50;;;1.40;;
10303;SDS011;5197;48.152;8.590;2022-11-20T09:34:17;1.50;;;1.40;;
10303;SDS011;5197;48.152;8.590;2022-11-20T09:36:44;1.50;;;1.40;;
10303;SDS011;5197;48.152;8.590;2022-11-20T09:39:11;1.70;;;1.60;;
10303;SDS011;5197;48.152;8.590;2022-11-20T09:55:25;2.70;;;1.97;;
10303;SDS011;5197;48.152;8.590;2022-11-20T09:57:53;2.00;;;1.90;;
10303;SDS011;5197;48.152;8.590;2022-11-20T10:00:21;1.47;;;1.40;;
10303;SDS011;5197;48.152;8.590;2022-11-20T10:05:27;1.13;;;1.13;;
10303;SDS011;5197;48.152;8.590;2022-11-20T10:08:23;1.57;;;1.47;;
10303;SDS011;5197;48.152;8.590;2022-11-20T10:11:04;12.17;;;9.83;;
10303;SDS011;5197;48.152;8.590;2022-11-20T10:16:17;5.17;;;4.77;;
10303;SDS011;5197;48.152;8.590;2022-11-20T10:18:52;1.90;;;1.80;;
10303;SDS011;5197;48.152;8.590;2022-11-20T10:29:39;1.80;;;0.80;;
10303;SDS011;5197;48.152;8.590;2022-11-20T10:32:11;0.60;;;0.60;;
10303;SDS011;5197;48.152;8.590;2022-11-20T10:37:41;0.77;;;0.77;;
10303;SDS011;5197;48.152;8.590;2022-11-20T10:42:51;0.80;;;0.80;;
10303;SDS011;5197;48.152;8.590;2022-11-20T10:45:36;1.20;;;0.97;;
10303;SDS011;5197;48.152;8.590;2022-11-20T10:48:16;0.87;;;0.80;;
10303;SDS011;5197;48.152;8.590;2022-11-20T10:53:46;1.17;;;0.90;;
10303;SDS011;5197;48.152;8.590;2022-11-20T10:56:20;0.70;;;0.70;;
10303;SDS011;5197;48.152;8.590;2022-11-20T10:59:02;1.13;;;1.13;;
10303;SDS011;5197;48.152;8.590;2022-11-20T11:01:40;1.10;;;1.10;;
10303;SDS011;5197;48.152;8.590;2022-11-20T11:04:33;1.30;;;1.20;;
10303;SDS011;5197;48.152;8.590;2022-11-20T11:07:00;2.63;;;0.63;;
10303;SDS011;5197;48.152;8.590;2022-11-20T11:09:52;0.70;;;0.70;;
10303;SDS011;5197;48.152;8.590;2022-11-20T11:12:21;0.90;;;0.90;;
10303;SDS011;5197;48.152;8.590;2022-11-20T11:14:52;0.93;;;0.90;;
10303;SDS011;5197;48.152;8.590;2022-11-20T11:17:25;1.00;;;1.00;;
10303;SDS011;5197;48.152;8.590;2022-11-20T11:20:03;1.27;;;0.90;;
10303;SDS011;5197;48.152;8.590;2022-11-20T11:22:47;1.70;;;0.87;;
10303;SDS011;5197;48.152;8.590;2022-11-20T11:25:29;1.00;;;1.00;;
10303;SDS011;5197;48.152;8.590;2022-11-20T11:27:58;0.93;;;0.90;;
10303;SDS011;5197;48.152;8.590;2022-11-20T11:30:28;0.70;;;0.70;;
10303;SDS011;5197;48.152;8.590;2022-11-20T11:33:31;1.90;;;1.10;;
10303;SDS011;5197;48.152;8.590;2022-11-20T11:38:29;1.20;;;1.10;;
10303;SDS011;5197;48.152;8.590;2022-11-20T11:41:07;1.07;;;1.00;;
10303;SDS011;5197;48.152;8.590;2022-11-20T11:43:39;1.40;;;1.30;;
10303;SDS011;5197;48.152;8.590;2022-11-20T11:46:34;1.60;;;1.50;;
10303;SDS011;5197;48.152;8.590;2022-11-20T11:51:38;2.50;;;1.30;;
10303;SDS011;5197;48.152;8.590;2022-11-20T11:54:16;1.43;;;1.13;;
10303;SDS011;5197;48.152;8.590;2022-11-20T11:56:47;2.43;;;1.20;;
10303;SDS011;5197;48.152;8.590;2022-11-20T11:59:18;2.93;;;1.60;;
10303;SDS011;5197;48.152;8.590;2022-11-20T12:01:57;2.53;;;1.50;;
10303;SDS011;5197;48.152;8.590;2022-11-20T12:04:43;1.73;;;1.00;;
10303;SDS011;5197;48.152;8.590;2022-11-20T12:07:32;2.63;;;1.27;;
10303;SDS011;5197;48.152;8.590;2022-11-20T12:10:15;2.33;;;1.20;;
10303;SDS011;5197;48.152;8.590;2022-11-20T12:12:51;1.07;;;1.07;;
10303;SDS011;5197;48.152;8.590;2022-11-20T12:15:31;0.80;;;0.80;;
10303;SDS011;5197;48.152;8.590;2022-11-20T12:18:00;1.50;;;0.70;;
10303;SDS011;5197;48.152;8.590;2022-11-20T12:20:29;1.30;;;0.67;;
10303;SDS011;5197;48.152;8.590;2022-11-20T12:23:07;0.80;;;0.70;;
10303;SDS011;5197;48.152;8.590;2022-11-20T12:25:45;0.90;;;0.90;;
10303;SDS011;5197;48.152;8.590;2022-11-20T12:28:27;0.83;;;0.83;;
10303;SDS011;5197;48.152;8.590;2022-11-20T12:31:14;1.00;;;0.97;;
10303;SDS011;5197;48.152;8.590;2022-11-20T12:42:05;4.00;;;1.37;;
10303;SDS011;5197;48.152;8.590;2022-11-20T13:01:53;1.80;;;0.90;;
10303;SDS011;5197;48.152;8.590;2022-11-20T13:07:26;0.70;;;0.70;;
10303;SDS011;5197;48.152;8.590;2022-11-20T13:09:54;0.83;;;0.70;;
10303;SDS011;5197;48.152;8.590;2022-11-20T13:12:25;0.87;;;0.83;;
10303;SDS011;5197;48.152;8.590;2022-11-20T13:15:15;1.27;;;0.73;;
10303;SDS011;5197;48.152;8.590;2022-11-20T13:18:04;1.13;;;0.80;;
10303;SDS011;5197;48.152;8.590;2022-11-20T13:20:36;2.37;;;0.87;;
10303;SDS011;5197;48.152;8.590;2022-11-20T13:23:08;0.80;;;0.80;;
10303;SDS011;5197;48.152;8.590;2022-11-20T13:25:37;0.77;;;0.77;;
10303;SDS011;5197;48.152;8.590;2022-11-20T13:30:35;0.73;;;0.73;;
10303;SDS011;5197;48.152;8.590;2022-11-20T13:33:07;2.47;;;0.40;;
10303;SDS011;5197;48.152;8.590;2022-11-20T13:38:54;0.70;;;0.67;;
10303;SDS011;5197;48.152;8.590;2022-11-20T13:44:05;2.23;;;2.03;;
10303;SDS011;5197;48.152;8.590;2022-11-20T13:46:42;9.30;;;5.20;;
10303;SDS011;5197;48.152;8.590;2022-11-20T13:49:16;1.60;;;1.23;;
10303;SDS011;5197;48.152;8.590;2022-11-20T13:51:47;1.13;;;0.90;;
10303;SDS011;5197;48.152;8.590;2022-11-20T13:59:55;0.90;;;0.70;;
10303;SDS011;5197;48.152;8.590;2022-11-20T14:05:34;1.30;;;0.77;;
10303;SDS011;5197;48.152;8.590;2022-11-20T14:08:35;1.70;;;0.80;;
10303;SDS011;5197;48.152;8.590;2022-11-20T14:11:22;0.83;;;0.70;;
10303;SDS011;5197;48.152;8.590;2022-11-20T14:14:04;2.70;;;0.73;;
10303;SDS011;5197;48.152;8.590;2022-11-20T14:16:47;0.80;;;0.80;;
10303;SDS011;5197;48.152;8.590;2022-11-20T14:19:23;0.80;;;0.80;;
10303;SDS011;5197;48.152;8.590;2022-11-20T14:21:53;2.23;;;1.10;;
10303;SDS011;5197;48.152;8.590;2022-11-20T14:24:22;2.80;;;1.60;;
10303;SDS011;5197;48.152;8.590;2022-11-20T14:26:50;0.90;;;0.90;;
10303;SDS011;5197;48.152;8.590;2022-11-20T14:29:19;0.83;;;0.80;;
10303;SDS011;5197;48.152;8.590;2022-11-20T14:31:50;1.47;;;0.80;;
10303;SDS011;5197;48.152;8.590;2022-11-20T14:34:24;1.17;;;1.07;;
10303;SDS011;5197;48.152;8.590;2022-11-20T14:36:58;1.50;;;1.40;;
10303;SDS011;5197;48.152;8.590;2022-11-20T14:39:30;1.60;;;1.50;;
10303;SDS011;5197;48.152;8.590;2022-11-20T14:42:00;2.67;;;1.70;;
10303;SDS011;5197;48.152;8.590;2022-11-20T14:44:31;2.03;;;1.37;;
10303;SDS011;5197;48.152;8.590;2022-11-20T14:47:00;3.00;;;2.33;;
10303;SDS011;5197;48.152;8.590;2022-11-20T14:49:30;2.77;;;1.67;;
10303;SDS011;5197;48.152;8.590;2022-11-20T14:52:02;1.33;;;1.00;;
10303;SDS011;5197;48.152;8.590;2022-11-20T14:54:47;0.87;;;0.87;;
10303;SDS011;5197;48.152;8.590;2022-11-20T14:57:23;1.20;;;1.10;;
10303;SDS011;5197;48.152;8.590;2022-11-20T14:59:50;1.30;;;0.87;;
10303;SDS011;5197;48.152;8.590;2022-11-20T15:02:17;1.03;;;0.90;;
10303;SDS011;5197;48.152;8.590;2022-11-20T15:04:48;0.83;;;0.83;;
10303;SDS011;5197;48.152;8.590;2022-11-20T15:07:24;1.10;;;1.07;;
10303;SDS011;5197;48.152;8.590;2022-11-20T15:10:30;3.73;;;1.50;;
10303;SDS011;5197;48.152;8.590;2022-11-20T15:12:52;4.27;;;1.90;;
10303;SDS011;5197;48.152;8.590;2022-11-20T15:15:30;4.03;;;2.17;;
10303;SDS011;5197;48.152;8.590;2022-11-20T15:18:17;2.70;;;1.53;;
10303;SDS011;5197;48.152;8.590;2022-11-20T15:20:47;0.90;;;0.90;;
10303;SDS011;5197;48.152;8.590;2022-11-20T15:23:15;1.10;;;1.00;;
10303;SDS011;5197;48.152;8.590;2022-11-20T15:25:45;2.40;;;1.07;;
10303;SDS011;5197;48.152;8.590;2022-11-20T15:28:18;1.97;;;1.17;;
10303;SDS011;5197;48.152;8.590;2022-11-20T15:30:48;1.30;;;0.97;;
10303;SDS011;5197;48.152;8.590;2022-11-20T15:33:16;1.43;;;1.33;;
10303;SDS011;5197;48.152;8.590;2022-11-20T15:35:44;2.03;;;1.60;;
10303;SDS011;5197;48.152;8.590;2022-11-20T15:38:11;1.57;;;1.47;;
10303;SDS011;5197;48.152;8.590;2022-11-20T15:40:38;1.43;;;1.33;;
10303;SDS011;5197;48.152;8.590;2022-11-20T15:43:05;3.20;;;2.70;;
10303;SDS011;5197;48.152;8.590;2022-11-20T15:45:52;5.07;;;3.20;;
10303;SDS011;5197;48.152;8.590;2022-11-20T15:48:28;5.70;;;2.93;;
10303;SDS011;5197;48.152;8.590;2022-11-20T15:53:37;2.87;;;1.60;;
10303;SDS011;5197;48.152;8.590;2022-11-20T15:56:09;1.67;;;1.57;;
10303;SDS011;5197;48.152;8.590;2022-11-20T15:58:39;3.50;;;1.83;;
10303;SDS011;5197;48.152;8.590;2022-11-20T16:01:11;2.83;;;1.90;;
10303;SDS011;5197;48.152;8.590;2022-11-20T16:03:40;2.77;;;2.23;;
10303;SDS011;5197;48.152;8.590;2022-11-20T16:06:07;1.70;;;1.60;;
10303;SDS011;5197;48.152;8.590;2022-11-20T16:08:35;1.57;;;1.47;;
10303;SDS011;5197;48.152;8.590;2022-11-20T16:11:02;1.80;;;1.70;;
10303;SDS011;5197;48.152;8.590;2022-11-20T16:13:30;2.13;;;2.00;;
10303;SDS011;5197;48.152;8.590;2022-11-20T16:16:27;6.53;;;5.03;;
10303;SDS011;5197;48.152;8.590;2022-11-20T16:18:57;11.07;;;7.50;;
10303;SDS011;5197;48.152;8.590;2022-11-20T16:21:24;7.20;;;5.07;;
10303;SDS011;5197;48.152;8.590;2022-11-20T16:23:58;3.93;;;3.50;;
10303;SDS011;5197;48.152;8.590;2022-11-20T16:26:26;5.50;;;3.80;;
10303;SDS011;5197;48.152;8.590;2022-11-20T16:28:54;9.57;;;4.27;;
10303;SDS011;5197;48.152;8.590;2022-11-20T16:31:22;4.83;;;3.80;;
10303;SDS011;5197;48.152;8.590;2022-11-20T16:33:50;4.73;;;3.57;;
10303;SDS011;5197;48.152;8.590;2022-11-20T16:36:18;4.93;;;3.73;;
10303;SDS011;5197;48.152;8.590;2022-11-20T16:38:46;7.40;;;3.57;;
10303;SDS011;5197;48.152;8.590;2022-11-20T16:41:17;11.20;;;8.43;;
10303;SDS011;5197;48.152;8.590;2022-11-20T16:43:45;7.33;;;5.93;;
10303;SDS011;5197;48.152;8.590;2022-11-20T16:46:26;4.13;;;3.60;;
10303;SDS011;5197;48.152;8.590;2022-11-20T16:49:02;3.97;;;3.57;;
10303;SDS011;5197;48.152;8.590;2022-11-20T16:51:33;4.50;;;3.43;;
10303;SDS011;5197;48.152;8.590;2022-11-20T16:54:01;6.23;;;4.93;;
10303;SDS011;5197;48.152;8.590;2022-11-20T16:56:29;3.20;;;2.23;;